EW0112 Weather Reports


Display with metric or nautical units.
time (UTC)temp
F
wind
direction
speed
MPH
gust
MPH
rain 1hr
in
rain 24hr
in
rain mn
in
humidity
%
barometer
mb
20190921130059 63 273 0.0 2.0 0.00 0.00 0.00 83 974.3
20190921124546 62 267 0.0 1.0 0.00 0.00 0.00 85 974.3
20190921123042 61 266 0.0 1.0 0.00 0.00 0.00 87 974.2
20190921121518 60 256 0.0 1.0 0.00 0.00 0.00 90 974.3
20190921120106 58 304 0.0 0.0 0.00 0.00 0.00 94 974.1
20190921114526 57 302 0.0 0.0 0.00 0.00 0.00 95 974.2
20190921113041 56 302 0.0 0.0 0.00 0.00 0.00 95 974.1
20190921111518 0 0.0 0.0 0.00 0.00 0.00 974.0
20190921110035 0 0.0 0.0 0.00 0.00 0.00 974.0
20190921104502 0 0.0 0.0 0.00 0.00 0.00 974.0
20190921103150 0 0.0 0.0 0.00 0.00 0.00 973.9
20190921101649 0 0.0 0.0 0.00 0.00 0.00 973.7
20190921100200 0 0.0 0.0 0.00 0.00 0.00 973.6
20190921094638 0 0.0 0.0 0.00 0.00 0.00 973.5
20190921093127 0 0.0 0.0 0.00 0.00 0.00 973.4
20190921091602 0 0.0 0.0 0.00 0.00 0.00 973.4
20190921090117 0 0.0 0.0 0.00 0.00 0.00 973.1
20190921084541 0 0.0 0.0 0.00 0.00 0.00 973.2
20190921083026 0 0.0 0.0 0.00 0.00 0.00 973.1
20190921081538 0 0.0 0.0 0.00 0.00 0.00 973.2
20190921080041 0 0.0 0.0 0.00 0.00 0.00 973.4
20190921074514 0 0.0 0.0 0.00 0.00 0.00 973.4
20190921073025 0 0.0 0.0 0.00 0.00 0.00 973.5
20190921071810 0 0.0 0.0 0.00 0.00 0.00 973.5
20190921070138 0 0.0 0.0 0.00 0.00 0.00 973.5
20190921064753 0 0.0 0.0 0.00 0.00 0.00 973.7
20190921063149 0 0.0 0.0 0.00 0.00 0.00 973.5
20190921061743 59 281 0.0 0.0 0.00 0.00 0.00 93 973.6
20190921060128 59 281 0.0 0.0 0.00 0.00 0.00 93 973.6
20190921054656 59 281 0.0 0.0 0.00 0.00 0.00 92 973.6
20190921053143 60 280 0.0 0.0 0.00 0.00 0.00 92 973.7
20190921051714 60 267 0.0 0.0 0.00 0.00 0.00 91 973.5
20190921050126 60 264 0.0 0.0 0.00 0.00 0.00 92 973.6
20190921044657 60 264 0.0 0.0 0.00 0.00 0.00 92 973.4
20190921043139 60 264 0.0 0.0 0.00 0.00 0.00 92 973.3
20190921041602 60 338 0.0 0.0 0.00 0.00 0.00 92 973.2
20190921040120 60 337 0.0 0.0 0.00 0.00 0.00 91 973.3
20190921034605 60 338 0.0 0.0 0.00 0.00 0.00 90 973.2
20190921033146 60 338 0.0 0.0 0.00 0.00 0.00 90 973.3
20190921031548 61 338 0.0 0.0 0.00 0.00 0.00 90 973.4
20190921030139 61 280 0.0 0.0 0.00 0.00 0.00 88 973.4
20190921024618 61 252 0.0 0.0 0.00 0.00 0.00 88 973.4
20190921023120 61 270 0.0 0.0 0.00 0.00 0.00 89 973.3
20190921021614 63 270 0.0 0.0 0.00 0.00 0.00 86 973.4
20190921020037 63 256 0.0 0.0 0.00 0.00 0.00 83 973.4
20190921014546 63 255 0.0 0.0 0.00 0.00 0.00 84 973.4
20190921013037 63 253 0.0 0.0 0.00 0.00 0.00 87 973.1
20190921011537 63 284 0.0 0.0 0.00 0.00 0.00 89 973.1
20190921010105 64 284 0.0 0.0 0.00 0.00 0.00 88 973.0
20190921004556 64 276 0.0 0.0 0.00 0.00 0.00 87 972.9
20190921003040 66 276 0.0 0.0 0.00 0.00 0.00 85 972.8
20190921001550 68 281 0.0 0.0 0.00 0.00 0.00 81 972.8
20190921000035 69 287 0.0 1.0 0.00 0.00 0.00 81 972.7
20190920234532 69 283 0.0 5.0 0.00 0.00 0.00 78 972.6
20190920233100 70 242 0.0 3.0 0.00 0.00 0.00 77 972.5
20190920231618 71 257 5.0 9.0 0.00 0.00 0.00 76 972.5
20190920230030 71 202 6.0 10.0 0.00 0.00 0.00 75 972.5
20190920224549 72 207 6.0 12.0 0.00 0.00 0.00 73 972.5
20190920223026 72 252 6.0 13.0 0.00 0.00 0.00 71 972.4
20190920221538 73 218 8.0 11.0 0.00 0.00 0.00 69 972.3
20190920220025 73 215 6.0 12.0 0.00 0.00 0.00 67 972.3
20190920214518 73 217 8.0 13.0 0.00 0.00 0.00 65 972.2
20190920213027 73 210 6.0 12.0 0.00 0.00 0.00 66 972.3
20190920211532 73 190 8.0 15.0 0.00 0.00 0.00 66 972.3
20190920210033 72 212 6.0 13.0 0.00 0.00 0.00 69 972.3
20190920204516 72 187 9.0 0.0 0.00 0.00 0.00 68 972.3
20190920203011 71 204 9.0 15.0 0.00 0.00 0.00 69 972.3
20190920201527 71 203 11.0 16.0 0.00 0.00 0.00 71 972.3
20190920200020 71 210 11.0 15.0 0.00 0.00 0.00 68 972.4
20190920194521 71 205 12.0 16.0 0.00 0.00 0.00 68 972.4
20190920193032 72 195 12.0 19.0 0.00 0.00 0.00 66 972.4
20190920191515 72 233 10.0 15.0 0.00 0.00 0.00 64 972.5
20190920190004 72 208 11.0 15.0 0.00 0.00 0.00 64 972.6
20190920184740 71 195 9.0 14.0 0.00 0.00 0.00 64 972.8
20190920183228 71 204 7.0 12.0 0.00 0.00 0.00 63 972.9
20190920180201 71 200 8.0 11.0 0.00 0.00 0.00 64 973.2
20190920174629 72 214 4.0 7.0 0.00 0.00 0.00 54 973.4
20190920173227 71 191 3.0 7.0 0.00 0.00 0.00 55 973.4
20190920171744 71 281 1.0 6.0 0.00 0.00 0.00 54 973.6
20190920170205 71 203 0.0 7.0 0.00 0.00 0.00 55 973.9
20190920164632 70 228 4.0 8.0 0.00 0.00 0.00 55 974.0
20190920163111 70 241 4.0 8.0 0.00 0.00 0.00 57 974.2
20190920161639 69 337 3.0 11.0 0.00 0.00 0.00 64 974.3
20190920160203 69 15 1.0 8.0 0.00 0.00 0.00 59 974.1
20190920154601 68 281 1.0 7.0 0.00 0.00 0.00 64 974.5
20190920153106 68 277 3.0 8.0 0.00 0.00 0.00 65 974.6
20190920151559 67 281 2.0 9.0 0.00 0.00 0.00 66 975.1
20190920150027 67 256 1.0 9.0 0.00 0.00 0.00 67 975.5
20190920144532 66 296 1.0 5.0 0.00 0.00 0.00 68 975.9
20190920143046 65 296 2.0 7.0 0.00 0.00 0.00 70 976.4
20190920141514 64 260 0.0 8.0 0.00 0.00 0.00 74 976.5
20190920140009 64 343 1.0 9.0 0.00 0.00 0.00 75 976.7
20190920134511 63 325 1.0 7.0 0.00 0.00 0.00 76 976.8
20190920133222 62 293 2.0 6.0 0.00 0.00 0.00 79 976.9
20190920131639 61 283 2.0 8.0 0.00 0.00 0.00 82 976.9